createdAt,value
2022-08-24T00:00:34.276Z,7.10
2022-08-24T00:03:01.760Z,7.37
2022-08-24T00:05:28.730Z,7.30
2022-08-24T00:07:55.584Z,6.77
2022-08-24T00:10:22.770Z,8.47
2022-08-24T00:12:51.130Z,6.40
2022-08-24T00:15:18.691Z,6.97
2022-08-24T00:17:45.853Z,7.50
2022-08-24T00:20:13.502Z,6.90
2022-08-24T00:22:41.187Z,6.80
2022-08-24T00:25:11.094Z,6.83
2022-08-24T00:27:39.108Z,8.43
2022-08-24T00:30:09.967Z,6.93
2022-08-24T00:32:38.037Z,7.97
2022-08-24T00:35:06.855Z,7.50
2022-08-24T00:37:34.566Z,7.07
2022-08-24T00:40:01.625Z,7.17
2022-08-24T00:42:28.616Z,7.20
2022-08-24T00:44:55.637Z,9.10
2022-08-24T00:47:32.662Z,7.20
2022-08-24T00:50:04.520Z,6.83
2022-08-24T00:52:40.310Z,8.07
2022-08-24T00:55:18.633Z,6.70
2022-08-24T00:57:49.479Z,6.10
2022-08-24T01:00:26.568Z,8.30
2022-08-24T01:02:58.689Z,8.33
2022-08-24T01:05:26.027Z,5.60
2022-08-24T01:07:53.654Z,5.53
2022-08-24T01:10:25.829Z,5.90
2022-08-24T01:13:05.885Z,7.73
2022-08-24T01:15:39.180Z,5.97
2022-08-24T01:18:27.387Z,6.30
2022-08-24T01:21:03.242Z,6.23
2022-08-24T01:23:49.193Z,6.20
2022-08-24T01:26:19.748Z,6.03
2022-08-24T01:28:50.497Z,5.93
2022-08-24T01:31:22.679Z,6.00
2022-08-24T01:33:51.938Z,5.87
2022-08-24T01:36:46.740Z,5.57
2022-08-24T01:39:23.469Z,7.20
2022-08-24T01:41:51.579Z,4.83
2022-08-24T01:44:20.653Z,5.87
2022-08-24T01:46:53.846Z,5.87
2022-08-24T01:49:23.524Z,6.13
2022-08-24T01:51:50.429Z,5.47
2022-08-24T01:54:17.319Z,5.33
2022-08-24T01:56:44.246Z,5.17
2022-08-24T01:59:12.847Z,5.63
2022-08-24T02:01:46.671Z,5.60
2022-08-24T02:04:16.529Z,7.00
2022-08-24T02:06:45.059Z,5.37
2022-08-24T02:09:12.447Z,5.50
2022-08-24T02:11:40.555Z,5.03
2022-08-24T02:14:07.865Z,5.53
2022-08-24T02:16:35.014Z,6.23
2022-08-24T02:19:01.859Z,4.77
2022-08-24T02:21:29.275Z,6.07
2022-08-24T02:23:56.283Z,5.63
2022-08-24T02:26:23.208Z,5.50
2022-08-24T02:28:54.500Z,6.40
2022-08-24T02:31:22.013Z,6.20
2022-08-24T02:33:48.810Z,5.80
2022-08-24T02:36:25.661Z,5.30
2022-08-24T02:38:56.933Z,6.10
2022-08-24T02:41:27.090Z,5.30
2022-08-24T02:43:55.968Z,6.97
2022-08-24T02:46:27.159Z,6.60
2022-08-24T02:48:57.590Z,7.63
2022-08-24T02:51:44.013Z,5.67
2022-08-24T02:54:14.127Z,5.63
2022-08-24T02:56:41.080Z,6.37
2022-08-24T02:59:07.905Z,5.73
2022-08-24T03:01:34.959Z,6.07
2022-08-24T03:04:02.305Z,5.77
2022-08-24T03:06:29.194Z,5.73
2022-08-24T03:08:57.066Z,6.63
2022-08-24T03:11:27.940Z,5.07
2022-08-24T03:13:56.250Z,7.80
2022-08-24T03:16:23.215Z,7.43
2022-08-24T03:18:50.343Z,6.00
2022-08-24T03:21:17.579Z,7.97
2022-08-24T03:23:44.583Z,8.13
2022-08-24T03:26:12.259Z,8.90
2022-08-24T03:28:39.299Z,8.83
2022-08-24T03:31:06.458Z,8.50
2022-08-24T03:33:33.466Z,8.73
2022-08-24T03:36:00.749Z,10.03
2022-08-24T03:38:28.359Z,7.87
2022-08-24T03:40:56.191Z,7.97
2022-08-24T03:43:41.956Z,9.30
2022-08-24T03:46:09.341Z,9.40
2022-08-24T03:48:36.290Z,9.73
2022-08-24T03:51:03.777Z,8.30
2022-08-24T03:53:30.689Z,8.67
2022-08-24T03:55:57.643Z,9.27
2022-08-24T03:58:24.588Z,8.90
2022-08-24T04:00:51.548Z,9.20
2022-08-24T04:03:18.708Z,9.80
2022-08-24T04:05:45.691Z,9.83
2022-08-24T04:08:15.023Z,9.67
2022-08-24T04:10:45.199Z,12.73
2022-08-24T04:13:11.949Z,9.93
2022-08-24T04:15:42.449Z,9.40
2022-08-24T04:18:09.753Z,9.30
2022-08-24T04:20:43.443Z,10.00
2022-08-24T04:23:13.138Z,10.10
2022-08-24T04:25:47.979Z,9.53
2022-08-24T04:28:20.407Z,8.97
2022-08-24T04:30:51.570Z,16.53
2022-08-24T04:33:19.541Z,9.30
2022-08-24T04:35:48.301Z,8.87
2022-08-24T04:38:17.260Z,10.03
2022-08-24T04:40:46.866Z,8.67
2022-08-24T04:43:19.901Z,9.10
2022-08-24T04:45:48.425Z,8.20
2022-08-24T04:48:16.075Z,8.60
2022-08-24T04:50:44.609Z,8.50
2022-08-24T04:53:13.551Z,8.13
2022-08-24T04:55:49.597Z,8.13
2022-08-24T04:58:17.978Z,9.60
2022-08-24T05:00:45.726Z,8.63
2022-08-24T05:03:12.778Z,8.50
2022-08-24T05:05:45.691Z,8.50
2022-08-24T05:08:13.761Z,9.80
2022-08-24T05:10:46.307Z,7.50
2022-08-24T05:13:14.091Z,7.50
2022-08-24T05:15:43.499Z,7.90
2022-08-24T05:18:10.425Z,9.30
2022-08-24T05:20:40.969Z,7.60
2022-08-24T05:23:08.158Z,8.80
2022-08-24T05:25:35.255Z,10.50
2022-08-24T05:28:01.990Z,7.60
2022-08-24T05:30:28.733Z,8.23
2022-08-24T05:32:55.464Z,8.73
2022-08-24T05:35:22.354Z,7.20
2022-08-24T05:37:49.159Z,6.87
2022-08-24T05:40:18.832Z,7.90
2022-08-24T05:42:46.090Z,7.20
2022-08-24T05:45:13.104Z,7.47
2022-08-24T05:47:40.087Z,8.10
2022-08-24T05:50:07.714Z,8.90
2022-08-24T05:52:35.536Z,8.10
2022-08-24T05:55:02.537Z,7.83
2022-08-24T05:57:34.719Z,7.43
2022-08-24T06:00:02.149Z,11.03
2022-08-24T06:02:29.189Z,11.60
2022-08-24T06:04:55.957Z,8.70
2022-08-24T06:07:22.714Z,10.03
2022-08-24T06:09:49.500Z,7.90
2022-08-24T06:12:16.197Z,10.77
2022-08-24T06:14:47.467Z,10.00
2022-08-24T06:17:14.405Z,8.70
2022-08-24T06:19:42.296Z,7.80
2022-08-24T06:22:09.606Z,6.50
2022-08-24T06:24:58.502Z,7.67
2022-08-24T06:27:26.186Z,7.67
2022-08-24T06:29:58.965Z,8.70
2022-08-24T06:32:25.888Z,6.80
2022-08-24T06:34:57.405Z,7.63
2022-08-24T06:37:26.696Z,9.70
2022-08-24T06:39:57.820Z,6.57
2022-08-24T06:42:24.948Z,7.27
2022-08-24T06:44:52.602Z,8.53
2022-08-24T06:47:19.533Z,7.07
2022-08-24T06:49:46.284Z,6.40
2022-08-24T06:52:13.298Z,5.10
2022-08-24T06:54:40.539Z,9.80
2022-08-24T06:57:07.461Z,8.57
2022-08-24T06:59:34.280Z,5.70
2022-08-24T07:02:01.572Z,9.23
2022-08-24T07:04:28.777Z,8.37
2022-08-24T07:06:55.979Z,6.80
2022-08-24T07:09:25.011Z,8.93
2022-08-24T07:11:52.203Z,6.40
2022-08-24T07:14:19.571Z,9.90
2022-08-24T07:16:47.048Z,8.10
2022-08-24T07:19:13.924Z,5.73
2022-08-24T07:21:40.833Z,7.60
2022-08-24T07:24:07.647Z,8.27
2022-08-24T07:26:35.024Z,5.77
2022-08-24T07:29:05.554Z,4.70
2022-08-24T07:31:35.548Z,5.10
2022-08-24T07:34:04.158Z,7.53
2022-08-24T07:36:31.161Z,6.00
2022-08-24T07:38:58.716Z,4.47
2022-08-24T07:42:11.036Z,4.50
2022-08-24T07:44:15.686Z,5.40
2022-08-24T07:46:43.494Z,4.13
2022-08-24T07:49:31.562Z,4.80
2022-08-24T07:51:58.972Z,7.17
2022-08-24T07:54:26.071Z,3.70
2022-08-24T07:56:52.993Z,4.73
2022-08-24T07:59:19.748Z,4.10
2022-08-24T08:01:46.573Z,4.43
2022-08-24T08:04:14.245Z,4.00
2022-08-24T08:06:44.058Z,4.03
2022-08-24T08:09:10.892Z,3.40
2022-08-24T08:11:37.701Z,3.67
2022-08-24T08:14:04.456Z,3.53
2022-08-24T08:16:31.489Z,7.70
2022-08-24T08:19:09.877Z,2.73
2022-08-24T08:22:08.783Z,4.43
2022-08-24T08:24:38.354Z,2.93
2022-08-24T08:27:05.854Z,4.20
2022-08-24T08:29:34.077Z,2.93
2022-08-24T08:32:01.143Z,3.87
2022-08-24T08:34:28.965Z,2.73
2022-08-24T08:36:55.789Z,2.93
2022-08-24T08:39:25.800Z,2.87
2022-08-24T08:42:22.858Z,2.60
2022-08-24T08:44:58.625Z,2.30
2022-08-24T08:47:50.196Z,4.57
2022-08-24T08:50:21.895Z,3.53
2022-08-24T08:53:09.833Z,2.40
2022-08-24T08:55:58.424Z,3.47
2022-08-24T08:58:53.784Z,3.10
2022-08-24T09:01:47.132Z,2.70
2022-08-24T09:04:41.959Z,2.17
2022-08-24T09:07:20.540Z,2.63
2022-08-24T09:10:18.345Z,2.67
2022-08-24T09:13:03.943Z,2.83
2022-08-24T09:15:46.706Z,2.77
2022-08-24T09:18:22.996Z,3.30
2022-08-24T09:21:40.577Z,2.13
2022-08-24T09:24:37.330Z,2.27
2022-08-24T09:27:22.189Z,3.90
2022-08-24T09:30:18.386Z,2.10
2022-08-24T09:32:57.117Z,2.33
2022-08-24T09:35:52.599Z,3.00
2022-08-24T09:38:50.837Z,2.50
2022-08-24T09:41:19.215Z,3.23
2022-08-24T09:44:04.810Z,3.50
2022-08-24T09:46:59.227Z,3.50
2022-08-24T09:49:55.616Z,3.53
2022-08-24T09:52:44.371Z,2.40
2022-08-24T09:55:38.596Z,2.57
2022-08-24T09:58:37.199Z,2.80
2022-08-24T10:01:17.518Z,3.20
2022-08-24T10:03:59.411Z,3.17
2022-08-24T10:06:35.278Z,2.10
2022-08-24T10:09:38.741Z,2.43
2022-08-24T10:12:27.297Z,3.23
2022-08-24T10:15:04.980Z,2.50
2022-08-24T10:17:47.269Z,1.90
2022-08-24T10:20:29.426Z,2.53
2022-08-24T10:23:25.910Z,4.47
2022-08-24T10:26:11.369Z,2.70
2022-08-24T10:29:07.034Z,3.00
2022-08-24T10:32:03.901Z,3.13
2022-08-24T10:34:52.517Z,2.70
2022-08-24T10:37:42.522Z,1.77
2022-08-24T10:40:39.117Z,2.10
2022-08-24T10:43:34.565Z,2.20
2022-08-24T10:46:27.965Z,2.60
2022-08-24T10:49:13.494Z,3.10
2022-08-24T10:51:47.668Z,3.50
2022-08-24T10:54:14.952Z,2.13
2022-08-24T10:57:15.628Z,3.60
2022-08-24T11:00:22.923Z,2.27
2022-08-24T11:03:04.945Z,2.03
2022-08-24T11:05:39.616Z,2.10
2022-08-24T11:08:07.731Z,2.20
2022-08-24T11:10:38.026Z,2.37
2022-08-24T11:13:18.889Z,2.70
2022-08-24T11:16:05.797Z,1.90
2022-08-24T11:18:52.776Z,1.70
2022-08-24T11:21:52.874Z,2.73
2022-08-24T11:24:19.563Z,2.13
2022-08-24T11:26:55.651Z,1.90
2022-08-24T11:29:27.809Z,2.17
2022-08-24T11:31:54.694Z,2.30
2022-08-24T11:34:33.938Z,2.30
2022-08-24T11:37:00.696Z,2.47
2022-08-24T11:39:30.747Z,2.50
2022-08-24T11:42:06.218Z,1.93
2022-08-24T11:44:42.143Z,1.97
2022-08-24T11:47:27.576Z,3.60
2022-08-24T11:50:26.185Z,3.33
2022-08-24T11:53:30.165Z,1.80
2022-08-24T11:56:25.864Z,2.17
2022-08-24T11:59:11.073Z,2.90
2022-08-24T12:01:53.672Z,3.90
2022-08-24T12:04:51.414Z,2.20
2022-08-24T12:07:33.410Z,2.80
2022-08-24T12:10:50.949Z,2.33
2022-08-24T12:13:35.366Z,3.27
2022-08-24T12:16:19.292Z,2.87
2022-08-24T12:19:04.799Z,2.10
2022-08-24T12:21:34.891Z,2.50
2022-08-24T12:24:15.592Z,3.27
2022-08-24T12:26:53.152Z,3.13
2022-08-24T12:29:38.439Z,2.40
2022-08-24T12:32:16.298Z,2.80
2022-08-24T12:35:21.646Z,1.87
2022-08-24T12:38:19.413Z,2.10
2022-08-24T12:41:17.890Z,1.90
2022-08-24T12:44:01.409Z,2.03
2022-08-24T12:46:28.406Z,3.20
2022-08-24T12:49:08.423Z,3.10
2022-08-24T12:51:51.817Z,2.40
2022-08-24T12:54:52.437Z,1.77
2022-08-24T12:58:30.400Z,2.80
2022-08-24T13:00:51.365Z,2.57
2022-08-24T13:03:46.082Z,2.37
2022-08-24T13:06:41.208Z,2.17
2022-08-24T13:09:32.078Z,2.40
2022-08-24T13:12:19.776Z,1.80
2022-08-24T13:14:56.856Z,1.90
2022-08-24T13:17:40.540Z,1.60
2022-08-24T13:20:43.694Z,7.50
2022-08-24T13:23:16.398Z,4.87
2022-08-24T13:25:52.075Z,2.97
2022-08-24T13:28:22.106Z,2.37
2022-08-24T13:31:04.283Z,1.90
2022-08-24T13:33:39.254Z,3.13
2022-08-24T13:36:24.938Z,2.20
2022-08-24T13:39:03.469Z,3.70
2022-08-24T13:41:42.025Z,1.90
2022-08-24T13:44:39.472Z,3.10
2022-08-24T13:47:44.474Z,2.10
2022-08-24T13:50:48.791Z,3.17
2022-08-24T13:53:53.178Z,2.00
2022-08-24T13:56:37.840Z,2.00
2022-08-24T13:59:37.040Z,3.90
2022-08-24T14:02:16.031Z,2.33
2022-08-24T14:05:00.763Z,2.13
2022-08-24T14:07:33.876Z,1.90
2022-08-24T14:10:31.104Z,3.47
2022-08-24T14:12:58.481Z,2.87
2022-08-24T14:16:19.519Z,2.33
2022-08-24T14:18:59.418Z,2.37
2022-08-24T14:21:39.373Z,1.90
2022-08-24T14:24:12.077Z,5.40
2022-08-24T14:26:40.125Z,2.87
2022-08-24T14:29:34.764Z,2.57
2022-08-24T14:32:08.648Z,2.00
2022-08-24T14:34:44.970Z,2.20
2022-08-24T14:37:14.438Z,2.60
2022-08-24T14:40:15.190Z,2.10
2022-08-24T14:43:21.969Z,1.73
2022-08-24T14:45:55.198Z,2.60
2022-08-24T14:48:39.699Z,2.27
2022-08-24T14:51:27.692Z,2.63
2022-08-24T14:54:13.727Z,2.13
2022-08-24T14:57:02.084Z,3.40
2022-08-24T15:00:15.764Z,2.60
2022-08-24T15:02:51.457Z,3.00
2022-08-24T15:05:23.806Z,2.33
2022-08-24T15:07:59.320Z,1.97
2022-08-24T15:10:48.593Z,2.13
2022-08-24T15:13:39.668Z,4.30
2022-08-24T15:16:38.857Z,2.83
2022-08-24T15:19:29.357Z,1.90
2022-08-24T15:22:14.667Z,4.40
2022-08-24T15:24:47.911Z,2.67
2022-08-24T15:27:48.849Z,4.07
2022-08-24T15:30:27.140Z,2.20
2022-08-24T15:33:01.292Z,2.00
2022-08-24T15:35:31.935Z,2.03
2022-08-24T15:38:16.488Z,3.23
2022-08-24T15:40:46.305Z,3.03
2022-08-24T15:43:13.836Z,2.00
2022-08-24T15:45:48.505Z,1.87
2022-08-24T15:48:19.498Z,2.20
2022-08-24T15:50:48.675Z,2.20
2022-08-24T15:53:38.867Z,2.13
2022-08-24T15:56:38.557Z,2.47
2022-08-24T15:59:23.504Z,2.50
2022-08-24T16:02:16.274Z,4.83
2022-08-24T16:04:48.519Z,1.80
2022-08-24T16:07:24.699Z,2.10
2022-08-24T16:10:12.692Z,2.63
2022-08-24T16:12:39.966Z,4.53
2022-08-24T16:15:16.973Z,1.83
2022-08-24T16:17:51.485Z,3.27
2022-08-24T16:20:21.113Z,2.40
2022-08-24T16:22:58.465Z,2.10
2022-08-24T16:25:44.133Z,1.87
2022-08-24T16:28:22.157Z,2.23
2022-08-24T16:30:57.863Z,2.30
2022-08-24T16:33:43.027Z,2.20
2022-08-24T16:36:14.998Z,2.50
2022-08-24T16:38:47.903Z,1.90
2022-08-24T16:41:19.773Z,2.40
2022-08-24T16:43:47.830Z,2.20
2022-08-24T16:46:21.388Z,2.20
2022-08-24T16:48:48.420Z,4.23
2022-08-24T16:51:15.203Z,3.60
2022-08-24T16:53:42.818Z,2.80
2022-08-24T16:56:12.472Z,1.90
2022-08-24T16:58:41.995Z,2.20
2022-08-24T17:01:08.844Z,2.80
2022-08-24T17:03:35.645Z,1.80
2022-08-24T17:06:02.610Z,3.37
2022-08-24T17:08:29.442Z,3.50
2022-08-24T17:10:56.284Z,2.00
2022-08-24T17:16:12.363Z,3.67
2022-08-24T17:18:41.509Z,3.20
2022-08-24T17:21:08.519Z,2.67
2022-08-24T17:23:35.660Z,3.57
2022-08-24T17:26:06.890Z,2.67
2022-08-24T17:28:38.830Z,2.67
2022-08-24T17:31:06.313Z,3.60
2022-08-24T17:33:33.167Z,2.10
2022-08-24T17:36:00.489Z,1.83
2022-08-24T17:38:30.302Z,2.07
2022-08-24T17:40:57.487Z,2.50
2022-08-24T17:43:24.892Z,2.30
2022-08-24T17:45:53.298Z,2.87
2022-08-24T17:48:24.627Z,2.17
2022-08-24T17:50:52.168Z,1.93
2022-08-24T17:53:19.233Z,2.07
2022-08-24T17:55:46.401Z,3.40
2022-08-24T17:58:14.899Z,3.30
2022-08-24T18:00:42.429Z,3.07
2022-08-24T18:03:12.309Z,2.83
2022-08-24T18:05:41.466Z,3.10
2022-08-24T18:08:08.534Z,2.47
2022-08-24T18:10:35.340Z,2.30
2022-08-24T18:13:03.569Z,4.20
2022-08-24T18:15:35.975Z,4.87
2022-08-24T18:18:08.391Z,3.10
2022-08-24T18:20:38.188Z,2.63
2022-08-24T18:23:05.176Z,3.07
2022-08-24T18:25:43.782Z,2.47
2022-08-24T18:28:11.099Z,2.53
2022-08-24T18:30:40.671Z,2.00
2022-08-24T18:33:08.519Z,3.00
2022-08-24T18:35:35.878Z,3.00
2022-08-24T18:38:02.717Z,3.00
2022-08-24T18:40:33.225Z,3.20
2022-08-24T18:43:02.131Z,2.63
2022-08-24T18:45:31.700Z,3.70
2022-08-24T18:47:58.856Z,2.73
2022-08-24T18:50:28.762Z,2.93
2022-08-24T18:52:56.382Z,5.30
2022-08-24T18:55:24.075Z,2.37
2022-08-24T18:57:51.571Z,2.43
2022-08-24T19:00:18.609Z,2.37
2022-08-24T19:02:45.690Z,2.77
2022-08-24T19:05:20.677Z,2.97
2022-08-24T19:07:52.496Z,3.83
2022-08-24T19:10:22.845Z,4.00
2022-08-24T19:12:55.260Z,3.07
2022-08-24T19:15:35.784Z,3.20
2022-08-24T19:18:07.634Z,3.47
2022-08-24T19:20:35.443Z,3.30
2022-08-24T19:23:08.635Z,3.37
2022-08-24T19:25:37.124Z,2.63
2022-08-24T19:28:04.702Z,4.20
2022-08-24T19:30:31.604Z,2.73
2022-08-24T19:33:00.116Z,3.00
2022-08-24T19:35:27.275Z,3.00
2022-08-24T19:37:54.125Z,2.97
2022-08-24T19:40:21.097Z,3.30
2022-08-24T19:42:51.016Z,2.40
2022-08-24T19:45:41.115Z,2.47
2022-08-24T19:48:08.189Z,3.57
2022-08-24T19:50:36.009Z,2.93
2022-08-24T19:53:05.009Z,2.60
2022-08-24T19:55:32.814Z,4.57
2022-08-24T19:58:30.259Z,4.50
2022-08-24T20:01:13.316Z,3.10
2022-08-24T20:03:40.901Z,3.77
2022-08-24T20:06:07.763Z,3.47
2022-08-24T20:08:34.644Z,3.73
2022-08-24T20:11:01.797Z,2.60
2022-08-24T20:13:28.554Z,2.47
2022-08-24T20:15:56.414Z,5.13
2022-08-24T20:18:35.113Z,5.90
2022-08-24T20:21:02.292Z,3.87
2022-08-24T20:23:29.665Z,4.50
2022-08-24T20:26:01.259Z,2.50
2022-08-24T20:28:37.955Z,3.50
2022-08-24T20:31:05.475Z,4.00
2022-08-24T20:33:32.310Z,4.40
2022-08-24T20:35:59.582Z,3.90
2022-08-24T20:38:29.411Z,2.87
2022-08-24T20:40:59.536Z,3.00
2022-08-24T20:43:26.525Z,3.23
2022-08-24T20:45:53.921Z,3.07
2022-08-24T20:48:30.323Z,3.23
2022-08-24T20:50:57.607Z,3.83
2022-08-24T20:53:24.992Z,2.97
2022-08-24T20:55:51.789Z,2.77
2022-08-24T20:58:21.481Z,3.03
2022-08-24T21:00:49.190Z,2.70
2022-08-24T21:03:18.422Z,4.07
2022-08-24T21:05:46.762Z,3.07
2022-08-24T21:08:14.327Z,2.77
2022-08-24T21:10:42.364Z,3.03
2022-08-24T21:13:09.504Z,3.37
2022-08-24T21:15:38.209Z,3.57
2022-08-24T21:18:05.929Z,3.37
2022-08-24T21:20:32.891Z,3.30
2022-08-24T21:22:59.771Z,2.77
2022-08-24T21:25:27.358Z,3.60
2022-08-24T21:27:54.425Z,3.60
2022-08-24T21:30:22.570Z,3.27
2022-08-24T21:33:08.108Z,5.40
2022-08-24T21:35:36.266Z,2.70
2022-08-24T21:38:04.991Z,2.60
2022-08-24T21:40:31.983Z,2.60
2022-08-24T21:42:58.913Z,3.20
2022-08-24T21:45:27.310Z,4.53
2022-08-24T21:47:54.151Z,2.50
2022-08-24T21:50:25.570Z,3.40
2022-08-24T21:52:53.787Z,3.63
2022-08-24T21:55:21.639Z,3.70
2022-08-24T21:57:49.041Z,3.57
2022-08-24T22:00:18.699Z,3.80
2022-08-24T22:02:46.144Z,5.00
2022-08-24T22:05:13.064Z,3.50
2022-08-24T22:07:40.379Z,3.07
2022-08-24T22:10:08.668Z,3.53
2022-08-24T22:12:40.521Z,2.87
2022-08-24T22:15:11.587Z,4.37
2022-08-24T22:17:38.433Z,3.27
2022-08-24T22:20:06.729Z,2.70
2022-08-24T22:22:34.047Z,3.73
2022-08-24T22:25:00.890Z,3.73
2022-08-24T22:27:27.635Z,4.47
2022-08-24T22:29:57.359Z,2.90
2022-08-24T22:32:24.609Z,5.23
2022-08-24T22:34:51.911Z,4.27
2022-08-24T22:37:18.679Z,3.00
2022-08-24T22:39:46.218Z,4.20
2022-08-24T22:42:13.038Z,3.80
2022-08-24T22:44:40.119Z,4.13
2022-08-24T22:47:12.984Z,4.20
2022-08-24T22:49:45.281Z,4.13
2022-08-24T22:52:14.637Z,3.90
2022-08-24T22:54:41.544Z,3.53
2022-08-24T22:57:09.081Z,3.93
2022-08-24T22:59:38.631Z,3.07
2022-08-24T23:02:11.245Z,3.37
2022-08-24T23:04:40.337Z,4.30
2022-08-24T23:07:08.486Z,3.63
2022-08-24T23:09:44.087Z,4.00
2022-08-24T23:12:14.988Z,4.63
2022-08-24T23:14:42.668Z,4.30
2022-08-24T23:17:09.669Z,4.00
2022-08-24T23:19:54.918Z,3.80
2022-08-24T23:22:21.839Z,4.43
2022-08-24T23:24:48.574Z,3.73
2022-08-24T23:27:18.064Z,3.47
2022-08-24T23:29:46.047Z,6.23
2022-08-24T23:32:13.702Z,4.43
2022-08-24T23:34:45.194Z,3.30
2022-08-24T23:37:12.607Z,2.70
2022-08-24T23:39:39.833Z,6.27
2022-08-24T23:42:06.979Z,6.67
2022-08-24T23:44:34.335Z,3.40
2022-08-24T23:47:01.323Z,3.27
2022-08-24T23:49:29.095Z,3.50
2022-08-24T23:51:56.045Z,3.00
2022-08-24T23:54:25.444Z,4.03
2022-08-24T23:56:53.092Z,3.90
2022-08-24T23:59:29.282Z,2.97
